Time;durP1;ratioP1;P1;durP2;ratioP2;P2;SDS_P1;SDS_P2;PMS_P1;PMS_P2;Temp;Humidity;BMP_temperature;BMP_pressure;BME280_temperature;BME280_humidity;BME280_pressure;Samples;Min_cycle;Max_cycle;Signal;HPM_P1;HPM_P2
2022/12/24 00:00:17;;;;;;;18.27;14.45;;;;;;;20.72;40.60;94649.09;5046072;28;20071;-64
2022/12/24 00:02:42;;;;;;;18.92;14.30;;;;;;;21.37;40.75;94743.75;5031243;28;20040;-63
2022/12/24 00:05:08;;;;;;;17.67;13.70;;;;;;;21.47;40.80;94775.56;5066325;28;20085;-63
2022/12/24 00:07:33;;;;;;;20.75;14.93;;;;;;;21.30;40.71;94747.03;5046461;28;20508;-63
2022/12/24 00:09:59;;;;;;;19.23;14.43;;;;;;;20.79;40.69;94670.25;5031833;28;20446;-64
2022/12/24 00:12:24;;;;;;;19.92;14.63;;;;;;;21.45;40.69;94764.50;5065534;28;20806;-63
2022/12/24 00:14:50;;;;;;;17.88;14.15;;;;;;;21.46;40.50;94781.50;5065044;28;20079;-63
2022/12/24 00:17:15;;;;;;;18.40;14.30;;;;;;;21.23;40.76;94752.25;5066134;28;20051;-64
2022/12/24 00:19:42;;;;;;;16.42;13.70;;;;;;;21.00;40.67;94729.88;5011975;28;20061;-63
2022/12/24 00:22:07;;;;;;;17.73;14.57;;;;;;;21.35;40.77;94765.25;5058651;28;20079;-64
2022/12/24 00:24:33;;;;;;;17.90;13.50;;;;;;;20.92;40.78;94705.72;5056214;28;20462;-65
2022/12/24 00:26:58;;;;;;;19.40;14.57;;;;;;;21.42;40.63;94786.47;5011359;28;20045;-63
2022/12/24 00:29:24;;;;;;;17.75;13.80;;;;;;;21.29;40.66;94761.81;5045762;28;20048;-64
2022/12/24 00:31:49;;;;;;;19.85;14.45;;;;;;;21.23;40.68;94750.25;5046583;28;20122;-63
2022/12/24 00:34:15;;;;;;;18.85;14.55;;;;;;;21.17;40.71;94744.09;5036735;28;20065;-64
2022/12/24 00:36:40;;;;;;;16.98;13.75;;;;;;;21.34;40.69;94758.34;5056107;28;20515;-63
2022/12/24 00:39:05;;;;;;;18.42;14.07;;;;;;;21.37;40.73;94762.75;5047197;28;20475;-63
2022/12/24 00:41:31;;;;;;;17.70;13.43;;;;;;;21.25;40.70;94758.63;5064352;28;20422;-63
2022/12/24 00:44:00;;;;;;;18.40;14.25;;;;;;;21.28;40.60;94765.78;5065288;28;20036;-63
2022/12/24 00:46:27;;;;;;;16.80;13.77;;;;;;;19.78;40.84;94536.00;5046635;28;20756;-65
2022/12/24 00:48:52;;;;;;;18.73;14.00;;;;;;;21.16;40.84;94748.06;5046596;28;20049;-65
2022/12/24 00:51:18;;;;;;;17.50;13.52;;;;;;;21.30;40.74;94768.75;5065871;28;20060;-64
2022/12/24 00:53:44;;;;;;;16.83;13.25;;;;;;;21.34;40.88;94774.63;5046319;28;20115;-63
2022/12/24 00:56:09;;;;;;;18.65;14.20;;;;;;;21.26;40.82;94762.81;5028196;28;20036;-63
2022/12/24 00:58:35;;;;;;;17.95;13.35;;;;;;;21.31;40.75;94770.19;5046143;28;20057;-64
2022/12/24 01:01:00;;;;;;;18.55;13.82;;;;;;;21.18;40.70;94761.88;5041552;28;20195;-63
2022/12/24 01:03:35;;;;;;;18.83;14.15;;;;;;;21.25;41.03;94783.06;5024760;28;20420;-64
2022/12/24 01:06:05;;;;;;;19.08;14.07;;;;;;;20.48;40.75;94665.19;5042434;28;20149;-63
2022/12/24 01:08:30;;;;;;;;;;;;;;;21.31;40.69;94775.63;5042220;28;20600;-63
2022/12/24 01:10:56;;;;;;;19.05;13.43;;;;;;;21.07;40.68;94734.75;5042045;28;19916;-62
2022/12/24 01:13:21;;;;;;;19.08;13.55;;;;;;;21.28;40.67;94776.63;5040954;28;20049;-64
2022/12/24 01:15:47;;;;;;;17.77;13.88;;;;;;;21.27;40.81;94791.47;5052612;28;20049;-63
2022/12/24 01:18:12;;;;;;;18.17;13.25;;;;;;;21.22;40.74;94789.50;5056101;28;20048;-64
2022/12/24 01:20:37;;;;;;;17.52;13.23;;;;;;;21.09;40.70;94775.75;5023968;28;20094;-63
2022/12/24 01:23:03;;;;;;;19.23;15.00;;;;;;;;;;5056647;28;20025;-63
2022/12/24 01:25:28;;;;;;;18.23;13.63;;;;;;;19.81;40.56;94562.09;5059625;28;20056;-63
2022/12/24 01:27:53;;;;;;;15.93;13.02;;;;;;;21.25;40.35;94769.50;5045525;28;20303;-63
2022/12/24 01:30:19;;;;;;;16.10;12.98;;;;;;;21.11;40.79;94754.25;5045995;28;20090;-64
2022/12/24 01:32:44;;;;;;;17.50;13.07;;;;;;;21.18;40.79;94766.56;5045350;28;20484;-64
2022/12/24 01:35:11;;;;;;;17.02;13.20;;;;;;;21.10;40.72;94757.47;5065124;28;20075;-63
2022/12/24 01:37:36;;;;;;;17.35;12.95;;;;;;;21.18;40.78;94772.75;5046781;28;20048;-62
2022/12/24 01:45:47;;;;;;;17.13;12.93;;;;;;;21.23;40.69;94780.13;5057886;28;20113;-63
2022/12/24 01:48:18;;;;;;;17.30;12.75;;;;;;;21.04;40.86;94768.34;5055650;28;20052;-63
2022/12/24 01:50:44;;;;;;;16.23;12.77;;;;;;;20.54;40.66;94684.88;5046853;28;20043;-63
2022/12/24 01:53:09;;;;;;;17.80;13.13;;;;;;;21.12;40.64;94788.31;5047142;28;20420;-64
2022/12/24 01:55:35;;;;;;;16.33;12.82;;;;;;;20.32;40.54;94655.13;5029139;28;20045;-65
2022/12/24 01:58:00;;;;;;;17.67;12.98;;;;;;;21.18;40.71;94767.31;5038272;28;20033;-62
2022/12/24 02:00:26;;;;;;;17.92;12.57;;;;;;;21.16;40.79;94774.47;5052113;28;20056;-64
2022/12/24 02:02:51;;;;;;;16.50;12.32;;;;;;;21.11;40.86;94783.38;5027634;28;20049;-63
2022/12/24 02:05:50;;;;;;;16.58;12.52;;;;;;;20.99;40.80;94750.09;5029615;28;20035;-63
2022/12/24 02:08:16;;;;;;;17.52;12.68;;;;;;;21.11;40.73;94794.97;5038120;28;20131;-64
2022/12/24 02:10:42;;;;;;;16.55;13.30;;;;;;;21.10;40.78;94750.06;5043965;28;20728;-63
2022/12/24 02:13:07;;;;;;;16.58;12.82;;;;;;;21.19;40.51;94759.91;5047251;28;20128;-63
2022/12/24 02:15:41;;;;;;;17.20;13.40;;;;;;;21.16;40.72;94769.78;5033051;28;20044;-63
2022/12/24 02:18:15;;;;;;;17.85;12.88;;;;;;;21.10;40.83;94760.91;5044702;28;20041;-63
2022/12/24 02:21:12;;;;;;;15.85;12.63;;;;;;;21.04;40.84;94767.63;5045857;28;21372;-62
2022/12/24 02:24:08;;;;;;;17.50;13.02;;;;;;;21.06;40.88;94765.88;5040113;28;20093;-64
2022/12/24 02:26:49;;;;;;;15.48;12.10;;;;;;;21.11;40.58;94773.25;5062767;28;20032;-64
2022/12/24 02:29:21;;;;;;;18.08;12.50;;;;;;;20.30;40.67;94652.16;5063706;28;20040;-64
2022/12/24 02:31:58;;;;;;;16.70;12.45;;;;;;;21.01;40.86;94758.47;5045561;28;20253;-63
2022/12/24 02:34:31;;;;;;;15.77;12.00;;;;;;;21.02;40.82;94770.81;5027358;28;20044;-63
2022/12/24 02:37:01;;;;;;;15.48;12.35;;;;;;;21.01;40.80;94763.91;5029319;28;20110;-64
2022/12/24 02:39:32;;;;;;;16.17;12.43;;;;;;;19.62;40.60;94545.63;5021109;28;20037;-63
2022/12/24 02:42:06;;;;;;;16.95;12.65;;;;;;;20.96;40.70;94734.09;5030214;28;20045;-64
2022/12/24 02:44:44;;;;;;;15.60;11.93;;;;;;;21.11;40.67;94750.81;5023170;28;20123;-62
2022/12/24 02:47:09;;;;;;;14.82;11.25;;;;;;;20.99;40.73;94743.94;5023353;28;20032;-63
2022/12/24 02:49:35;;;;;;;15.57;11.57;;;;;;;21.01;40.80;94752.31;5024549;28;20393;-62
2022/12/24 02:52:00;;;;;;;16.13;11.90;;;;;;;20.98;40.84;94751.38;5056789;28;20055;-63
2022/12/24 02:54:26;;;;;;;16.15;11.75;;;;;;;20.17;40.73;94622.13;5056416;28;20037;-64
2022/12/24 02:57:16;;;;;;;15.13;11.77;;;;;;;21.04;40.59;94746.63;5013556;28;20075;-62
2022/12/24 03:00:04;;;;;;;15.02;11.75;;;;;;;21.03;40.65;94734.31;5043601;28;20120;-63
2022/12/24 03:02:37;;;;;;;14.75;11.70;;;;;;;20.86;40.82;94718.59;5023118;28;20049;-63
2022/12/24 03:05:02;;;;;;;15.65;11.15;;;;;;;20.96;40.70;94739.53;5040106;28;20033;-62
2022/12/24 03:07:36;;;;;;;15.80;11.77;;;;;;;20.96;40.87;94740.25;5061076;28;20549;-64
2022/12/24 03:10:14;;;;;;;14.75;11.40;;;;;;;21.02;40.77;94751.81;5020417;28;20057;-62
2022/12/24 03:12:51;;;;;;;14.57;11.40;;;;;;;20.11;40.65;94624.13;5009258;28;20049;-62
2022/12/24 03:15:17;;;;;;;13.95;10.93;;;;;;;20.28;40.75;94651.91;5016111;28;20122;-64
2022/12/24 03:17:45;;;;;;;14.98;11.75;;;;;;;20.77;40.83;94721.59;5037507;28;20039;-63
2022/12/24 03:20:10;;;;;;;15.90;12.07;;;;;;;20.84;40.57;94721.06;5009370;28;20497;-64
2022/12/24 03:22:36;;;;;;;14.85;11.55;;;;;;;20.88;40.56;94724.25;5029153;28;20043;-64
2022/12/24 03:25:01;;;;;;;14.80;11.00;;;;;;;20.86;40.75;94718.59;5036217;28;20056;-62
2022/12/24 03:27:28;;;;;;;15.85;11.63;;;;;;;20.84;40.66;94734.63;5012435;28;20048;-63
2022/12/24 03:29:53;;;;;;;14.20;10.75;;;;;;;20.88;40.82;94726.97;5033503;28;20052;-63
2022/12/24 03:32:23;;;;;;;13.48;10.15;;;;;;;20.93;40.64;94745.22;5042181;28;20085;-63
2022/12/24 03:34:49;;;;;;;15.02;11.40;;;;;;;20.42;40.87;94667.19;5054997;28;20060;-62
2022/12/24 03:37:14;;;;;;;15.55;11.45;;;;;;;20.95;40.67;94740.03;5051645;28;20060;-62
2022/12/24 03:39:39;;;;;;;14.20;10.75;;;;;;;21.00;40.68;94743.44;5029633;28;20045;-61
2022/12/24 03:42:05;;;;;;;14.77;11.23;;;;;;;21.00;40.51;94739.97;5042943;28;20148;-62
2022/12/24 03:44:30;;;;;;;15.32;11.70;;;;;;;20.41;40.47;94662.97;5042563;28;20028;-62
2022/12/24 03:46:56;;;;;;;13.95;10.30;;;;;;;20.76;40.71;94722.81;5026016;28;20028;-64
2022/12/24 03:49:21;;;;;;;13.48;10.45;;;;;;;20.80;40.79;94743.03;5029449;28;20056;-62
2022/12/24 03:51:46;;;;;;;14.82;10.52;;;;;;;20.73;40.82;94726.50;5009818;28;20057;-63
2022/12/24 03:54:12;;;;;;;13.98;10.82;;;;;;;20.08;40.49;94641.38;5030211;28;20097;-64
2022/12/24 03:56:37;;;;;;;13.55;10.57;;;;;;;20.44;40.69;94672.81;5065560;28;20036;-65
2022/12/24 03:59:03;;;;;;;14.10;10.60;;;;;;;20.41;39.82;94679.25;5067295;28;20481;-64
2022/12/24 04:01:29;;;;;;;15.13;10.75;;;;;;;20.93;40.78;94750.66;5048095;28;20538;-63
2022/12/24 04:03:54;;;;;;;14.23;10.77;;;;;;;20.92;40.59;94760.00;5054004;28;20471;-63
2022/12/24 04:06:20;;;;;;;13.48;10.63;;;;;;;20.59;40.46;94711.25;5027664;28;20049;-64
2022/12/24 04:08:45;;;;;;;13.82;10.73;;;;;;;20.85;40.38;94766.72;5045906;28;20082;-64
2022/12/24 04:11:12;;;;;;;15.43;11.10;;;;;;;20.51;40.57;94715.72;5046821;28;20037;-65
2022/12/24 04:13:37;;;;;;;14.00;10.55;;;;;;;20.87;40.71;94779.78;5027165;28;20045;-63
2022/12/24 04:16:08;;;;;;;13.95;10.45;;;;;;;20.92;40.53;94776.31;5009952;28;20056;-65
2022/12/24 04:18:34;;;;;;;13.63;10.68;;;;;;;20.92;40.71;94776.31;5054969;28;20056;-63
2022/12/24 04:20:59;;;;;;;12.80;10.13;;;;;;;20.89;40.53;94774.59;5043063;28;20132;-62
2022/12/24 04:23:25;;;;;;;14.00;10.27;;;;;;;20.86;40.60;94783.72;5028824;28;20037;-64
2022/12/24 04:25:50;;;;;;;15.00;10.02;;;;;;;20.84;40.73;94769.91;5043040;28;20060;-65
2022/12/24 04:28:16;;;;;;;14.40;10.73;;;;;;;20.82;40.78;94777.81;5058780;28;20129;-64
2022/12/24 04:30:41;;;;;;;13.52;9.63;;;;;;;20.86;40.75;94778.28;5047547;28;20044;-63
2022/12/24 04:33:07;;;;;;;14.95;10.30;;;;;;;20.73;40.63;94753.66;5059926;28;20044;-65
2022/12/24 04:35:32;;;;;;;14.88;10.93;;;;;;;20.74;40.72;94782.28;5026639;28;20094;-62
2022/12/24 04:37:58;;;;;;;13.48;10.85;;;;;;;20.84;40.34;94791.63;5011037;28;20033;-63
2022/12/24 04:40:24;;;;;;;14.00;10.20;;;;;;;20.88;40.52;94797.53;5040841;28;20039;-63
2022/12/24 04:42:49;;;;;;;13.35;10.15;;;;;;;20.86;40.65;94797.28;5043732;28;20045;-62
2022/12/24 04:45:16;;;;;;;13.68;9.65;;;;;;;20.79;40.79;94795.84;5021989;28;20065;-65
2022/12/24 04:47:41;;;;;;;14.05;9.98;;;;;;;20.89;40.25;94796.28;5027127;28;20646;-64
2022/12/24 04:50:07;;;;;;;13.77;10.15;;;;;;;21.01;39.94;94758.47;5045418;28;20033;-63
2022/12/24 04:52:33;;;;;;;13.57;9.43;;;;;;;21.44;39.73;94789.41;5018800;28;20156;-65
2022/12/24 04:54:58;;;;;;;13.75;10.32;;;;;;;21.53;39.51;94759.25;5036179;28;20583;-63
2022/12/24 04:57:24;;;;;;;14.15;9.75;;;;;;;20.92;39.23;94656.88;5017673;28;20487;-65
2022/12/24 04:59:49;;;;;;;11.63;9.77;;;;;;;21.88;39.17;94806.22;5048900;28;20490;-64
2022/12/24 05:02:14;;;;;;;14.13;9.82;;;;;;;21.87;38.88;94782.25;5061896;28;20032;-64
2022/12/24 05:04:40;;;;;;;12.38;9.65;;;;;;;22.02;38.66;94775.25;5044705;28;20052;-64
2022/12/24 05:07:05;;;;;;;12.10;9.02;;;;;;;21.98;38.59;94761.91;5039456;28;20044;-64
2022/12/24 05:09:31;;;;;;;12.30;8.88;;;;;;;20.67;38.25;94560.28;5061319;28;20036;-65
2022/12/24 05:11:56;;;;;;;12.85;9.50;;;;;;;22.06;38.39;94751.97;5054041;28;20129;-65
2022/12/24 05:14:22;;;;;;;11.75;8.88;;;;;;;21.74;38.18;94687.00;5035014;28;20033;-65
2022/12/24 05:16:47;;;;;;;12.65;9.50;;;;;;;22.32;37.96;94763.16;5035699;28;20040;-64
2022/12/24 05:19:13;;;;;;;12.25;9.10;;;;;;;22.32;38.12;94762.41;5032336;28;20033;-65
2022/12/24 05:21:38;;;;;;;12.85;9.35;;;;;;;21.68;38.08;94650.97;5053876;28;20044;-65
2022/12/24 05:26:54;;;;;;;12.00;8.90;;;;;;;22.47;38.12;94763.50;5032776;28;20039;-64
2022/12/24 05:29:19;;;;;;;12.82;9.45;;;;;;;22.46;37.85;94767.47;5044877;28;20033;-63
2022/12/24 05:31:46;;;;;;;11.70;9.32;;;;;;;22.48;37.77;94764.97;5044692;28;20048;-64
2022/12/24 05:34:12;;;;;;;12.15;9.05;;;;;;;22.37;38.03;94775.97;5043760;28;20064;-63
2022/12/24 05:36:38;;;;;;;10.55;8.23;;;;;;;22.14;38.10;94773.91;5029093;28;20469;-65
2022/12/24 05:39:03;;;;;;;10.75;8.80;;;;;;;22.30;38.31;94781.97;5009645;28;20106;-64
2022/12/24 05:41:29;;;;;;;12.30;9.07;;;;;;;22.35;38.03;94773.00;5038105;28;20848;-64
2022/12/24 05:43:54;;;;;;;10.90;8.50;;;;;;;22.31;38.13;94761.66;5025539;28;20060;-63
2022/12/24 05:46:20;;;;;;;13.05;8.80;;;;;;;22.37;38.16;94765.06;5041082;28;20041;-62
2022/12/24 05:48:46;;;;;;;12.25;8.77;;;;;;;22.36;38.18;94746.53;5045042;28;20036;-63
2022/12/24 05:51:12;;;;;;;9.60;8.13;;;;;;;22.42;37.58;94739.81;5064629;28;20346;-64
2022/12/24 05:53:38;;;;;;;12.85;9.45;;;;;;;22.38;37.98;94747.50;5046160;28;20042;-62
2022/12/24 05:56:04;;;;;;;11.13;8.35;;;;;;;22.45;37.80;94744.97;5063748;28;20153;-67
2022/12/24 05:58:30;;;;;;;12.23;8.93;;;;;;;22.47;37.92;94747.91;5045532;28;20056;-63
2022/12/24 06:00:55;;;;;;;10.45;7.97;;;;;;;22.40;37.85;94769.50;5053280;28;20041;-63
2022/12/24 06:03:20;;;;;;;11.57;8.73;;;;;;;21.83;38.14;94673.09;5023538;28;20516;-65
2022/12/24 06:05:46;;;;;;;10.98;8.60;;;;;;;22.46;38.13;94768.19;5043401;28;20125;-64
2022/12/24 06:08:11;;;;;;;11.13;8.82;;;;;;;22.50;38.15;94762.50;5044077;28;20036;-63
2022/12/24 06:10:37;;;;;;;11.70;8.60;;;;;;;22.60;37.73;94777.97;5042286;28;20501;-64
2022/12/24 06:13:02;;;;;;;11.45;8.95;;;;;;;22.50;37.80;94754.31;5055228;28;20520;-64
2022/12/24 06:15:27;;;;;;;12.95;9.23;;;;;;;22.78;38.21;94776.56;5042519;28;20052;-63
2022/12/24 06:17:53;;;;;;;11.75;8.40;;;;;;;22.84;38.14;94785.41;5060089;28;20539;-64
2022/12/24 06:20:18;;;;;;;10.65;8.65;;;;;;;22.76;37.55;94773.59;5062447;28;20037;-63
2022/12/24 06:22:44;;;;;;;10.70;8.57;;;;;;;22.83;37.84;94783.94;5062010;28;20123;-64
2022/12/24 06:25:09;;;;;;;11.68;8.68;;;;;;;22.84;37.42;94769.06;5061715;28;20040;-63
2022/12/24 06:27:35;;;;;;;11.50;8.30;;;;;;;23.04;37.34;94772.81;5042965;28;20489;-66
2022/12/24 06:30:00;;;;;;;11.35;8.88;;;;;;;23.19;37.42;94778.59;5062379;28;20060;-65
2022/12/24 06:32:25;;;;;;;12.15;9.00;;;;;;;23.21;37.62;94786.25;5043300;28;20384;-64
2022/12/24 06:34:51;;;;;;;11.80;8.77;;;;;;;23.33;37.02;94785.59;5011831;28;20487;-66
2022/12/24 06:37:17;;;;;;;11.95;8.50;;;;;;;23.44;36.82;94797.09;5047881;28;20052;-63
2022/12/24 06:39:45;;;;;;;10.18;8.38;;;;;;;22.44;36.66;94685.63;5053211;28;20055;-63
2022/12/24 06:42:14;;;;;;;11.13;8.25;;;;;;;22.67;37.57;94809.34;5044201;28;20183;-66
2022/12/24 06:44:39;;;;;;;11.13;8.32;;;;;;;21.87;38.10;94711.56;5045514;28;20522;-64
2022/12/24 06:47:05;;;;;;;10.35;8.07;;;;;;;22.83;37.46;94789.38;5063671;28;20029;-67
2022/12/24 06:49:30;;;;;;;11.20;8.23;;;;;;;22.20;37.22;94647.50;5061837;28;20053;-65
2022/12/24 06:51:56;;;;;;;10.48;8.40;;;;;;;23.42;36.71;94790.69;5045766;28;20048;-61
2022/12/24 06:54:21;;;;;;;11.85;8.73;;;;;;;22.46;35.97;94637.59;5060310;28;20105;-61
2022/12/24 06:56:46;;;;;;;13.18;10.68;;;;;;;23.53;35.38;94796.00;5054247;28;20048;-63
2022/12/24 06:59:12;;;;;;;13.23;9.45;;;;;;;23.62;35.58;94803.81;5042850;28;20033;-61
2022/12/24 07:01:37;;;;;;;13.63;9.57;;;;;;;23.74;35.68;94799.72;5040681;28;20045;-66
2022/12/24 07:04:03;;;;;;;13.35;9.07;;;;;;;23.86;35.19;94784.69;5020524;28;20048;-66
2022/12/24 07:06:29;;;;;;;12.25;8.88;;;;;;;23.92;35.28;94794.97;5016014;28;20051;-64
2022/12/24 07:08:54;;;;;;;11.73;8.98;;;;;;;23.96;35.33;94798.16;5043866;28;20051;-64
2022/12/24 07:11:20;;;;;;;10.32;8.43;;;;;;;23.86;35.56;94810.69;5059817;28;20036;-63
2022/12/24 07:13:46;;;;;;;12.32;8.88;;;;;;;23.86;35.59;94806.50;5041953;28;20065;-63
2022/12/24 07:16:11;;;;;;;11.60;8.48;;;;;;;23.76;35.38;94808.13;5041708;28;20544;-66
2022/12/24 07:18:36;;;;;;;11.50;8.65;;;;;;;23.72;35.50;94802.22;5040942;28;20497;-65
2022/12/24 07:21:03;;;;;;;10.93;8.38;;;;;;;23.65;35.42;94803.56;5033646;28;20578;-66
2022/12/24 07:23:30;;;;;;;11.73;8.70;;;;;;;23.62;35.84;94798.38;5062693;28;20111;-66
2022/12/24 07:26:00;;;;;;;10.85;8.32;;;;;;;23.17;36.10;94726.63;5062382;28;20050;-66
2022/12/24 07:28:25;;;;;;;11.57;8.75;;;;;;;23.62;36.01;94787.47;5043129;28;20079;-65
2022/12/24 07:30:51;;;;;;;10.57;8.65;;;;;;;23.72;36.21;94807.66;5053297;28;20529;-66
2022/12/24 07:33:16;;;;;;;10.93;8.73;;;;;;;23.66;36.19;94823.38;5045504;28;20057;-66
2022/12/24 07:35:42;;;;;;;9.90;8.15;;;;;;;22.26;36.01;94610.13;5048189;28;20533;-66
2022/12/24 07:38:07;;;;;;;11.18;8.27;;;;;;;23.61;36.14;94813.25;5066850;28;20036;-67
2022/12/24 07:40:33;;;;;;;12.25;9.02;;;;;;;23.49;35.66;94785.38;5029475;28;20040;-66
2022/12/24 07:42:59;;;;;;;11.20;8.70;;;;;;;23.60;36.12;94806.31;5010755;28;20059;-63
2022/12/24 07:45:24;;;;;;;10.93;8.40;;;;;;;22.99;36.09;94716.44;5053817;28;20048;-66
2022/12/24 07:47:50;;;;;;;10.73;8.13;;;;;;;23.64;36.17;94815.69;5047647;28;20138;-66
2022/12/24 07:50:15;;;;;;;11.00;8.43;;;;;;;23.11;35.84;94736.84;5067504;28;20517;-67
2022/12/24 07:52:41;;;;;;;10.60;8.50;;;;;;;23.68;36.22;94826.34;5048374;28;20041;-65
2022/12/24 07:55:06;;;;;;;9.80;8.50;;;;;;;22.71;36.16;94684.59;5034314;28;20053;-64
2022/12/24 07:57:32;;;;;;;11.80;8.43;;;;;;;23.60;35.84;94825.41;5054588;28;20119;-66
2022/12/24 07:59:57;;;;;;;10.27;8.45;;;;;;;23.04;36.12;94751.03;5066302;28;20052;-67
2022/12/24 08:02:23;;;;;;;10.50;8.05;;;;;;;23.70;35.98;94826.53;5065499;28;20128;-64
2022/12/24 08:04:48;;;;;;;10.50;8.27;;;;;;;23.70;36.27;94837.44;5047474;28;20044;-65
2022/12/24 08:07:13;;;;;;;9.88;8.00;;;;;;;23.25;35.56;94762.91;5047984;28;20045;-63
2022/12/24 08:09:39;;;;;;;11.05;7.88;;;;;;;23.61;36.15;94840.50;5047177;28;20463;-63
2022/12/24 08:12:05;;;;;;;11.25;8.50;;;;;;;22.94;36.39;94758.09;5046480;28;20044;-66
2022/12/24 08:14:30;;;;;;;10.32;8.40;;;;;;;23.52;36.27;94854.50;5066342;28;20039;-66
2022/12/24 08:16:56;;;;;;;10.95;8.48;;;;;;;23.47;36.15;94863.47;5064349;28;20052;-66
2022/12/24 08:19:21;;;;;;;11.75;8.38;;;;;;;23.42;36.49;94850.63;5049121;28;20083;-63
2022/12/24 08:21:47;;;;;;;10.30;7.97;;;;;;;23.46;36.40;94851.09;5027167;28;20052;-64
2022/12/24 08:24:12;;;;;;;10.35;8.15;;;;;;;23.35;36.25;94834.88;5038569;28;20052;-66
2022/12/24 08:26:37;;;;;;;12.15;8.68;;;;;;;23.52;36.34;94849.03;5065090;28;20542;-65
2022/12/24 08:29:03;;;;;;;11.50;8.57;;;;;;;23.47;36.32;94847.13;5065928;28;20043;-66
2022/12/24 08:31:29;;;;;;;11.85;8.98;;;;;;;22.66;36.13;94723.47;5049550;28;20177;-65
2022/12/24 08:33:54;;;;;;;10.48;8.43;;;;;;;23.33;36.29;94810.13;5053057;28;20501;-63
2022/12/24 08:36:20;;;;;;;10.20;8.30;;;;;;;23.46;36.45;94818.41;5051888;28;20065;-63
2022/12/24 08:38:45;;;;;;;10.80;8.98;;;;;;;23.29;36.43;94809.69;5067235;28;20093;-64
2022/12/24 08:41:11;;;;;;;10.95;8.43;;;;;;;22.79;36.26;94737.94;5032488;28;20033;-64
2022/12/24 08:43:36;;;;;;;11.90;8.85;;;;;;;22.96;36.49;94744.69;5052190;28;20418;-66
2022/12/24 08:46:03;;;;;;;10.40;8.80;;;;;;;22.79;36.31;94731.75;5062380;28;20578;-63
2022/12/24 08:48:28;;;;;;;11.00;8.18;;;;;;;23.46;36.67;94853.81;5039124;28;20057;-65
2022/12/24 08:50:54;;;;;;;11.30;8.45;;;;;;;23.46;36.51;94823.84;5045515;28;20045;-65
2022/12/24 08:53:19;;;;;;;10.85;8.77;;;;;;;23.45;36.70;94844.16;5046196;28;20460;-65
2022/12/24 08:55:45;;;;;;;10.00;8.45;;;;;;;23.37;36.30;94837.81;5063908;28;20589;-65
2022/12/24 08:58:10;;;;;;;12.05;9.05;;;;;;;23.45;36.54;94849.63;5032742;28;20064;-66
2022/12/24 09:00:36;;;;;;;10.35;8.02;;;;;;;23.25;36.57;94822.84;5049903;28;20048;-65
2022/12/24 09:03:01;;;;;;;10.40;8.30;;;;;;;23.55;36.63;94858.91;5035415;28;20496;-64
2022/12/24 09:05:27;;;;;;;11.07;8.90;;;;;;;23.48;36.55;94873.13;5025079;28;20047;-63
2022/12/24 09:07:53;;;;;;;11.10;8.57;;;;;;;23.45;36.38;94855.06;5028298;28;20025;-66
2022/12/24 09:10:18;;;;;;;10.73;8.88;;;;;;;23.22;36.59;94804.81;5043700;28;20473;-64
2022/12/24 09:12:44;;;;;;;10.50;8.60;;;;;;;22.46;36.69;94691.28;5051975;28;20056;-66
2022/12/24 09:15:09;;;;;;;11.50;9.02;;;;;;;23.30;36.50;94810.41;5045556;28;20048;-66
2022/12/24 09:17:35;;;;;;;11.27;8.93;;;;;;;22.18;36.73;94633.69;5033241;28;20051;-65
2022/12/24 09:20:01;;;;;;;10.45;8.23;;;;;;;23.36;36.38;94813.81;5032970;28;20501;-66
2022/12/24 09:22:26;;;;;;;10.55;8.48;;;;;;;23.49;36.29;94831.00;5052120;28;20615;-66
2022/12/24 09:24:54;;;;;;;10.73;8.43;;;;;;;23.38;37.04;94806.59;5057450;28;20487;-64
2022/12/24 09:27:20;;;;;;;10.02;8.73;;;;;;;22.79;36.39;94718.88;5044252;28;20123;-63
2022/12/24 09:29:45;;;;;;;9.85;8.32;;;;;;;23.53;36.66;94818.56;5050044;28;20033;-65
2022/12/24 09:32:11;;;;;;;12.27;9.32;;;;;;;22.51;36.60;94676.88;5050715;28;20132;-67
2022/12/24 09:34:36;;;;;;;11.25;8.75;;;;;;;23.48;36.61;94837.69;5043389;28;20508;-65
2022/12/24 09:37:02;;;;;;;10.48;8.93;;;;;;;22.79;36.58;94707.25;5043681;28;20083;-64
2022/12/24 09:39:28;;;;;;;12.57;8.73;;;;;;;23.51;36.25;94831.22;5034789;28;20044;-63
2022/12/24 09:42:05;;;;;;;12.25;8.80;;;;;;;23.52;36.65;94827.25;5037965;28;20536;-67
2022/12/24 09:44:44;;;;;;;11.52;9.10;;;;;;;23.52;36.37;94827.25;5028094;28;20034;-64
2022/12/24 09:47:39;;;;;;;11.27;9.00;;;;;;;23.50;36.78;94807.94;5043521;28;20524;-62
2022/12/24 09:50:28;;;;;;;10.77;8.73;;;;;;;23.33;36.65;94782.88;5046242;28;20701;-64
2022/12/24 09:52:54;;;;;;;10.65;8.80;;;;;;;23.45;36.52;94816.91;5042938;28;20053;-64
2022/12/24 09:55:31;;;;;;;11.80;9.63;;;;;;;23.39;36.50;94813.50;5045085;28;20057;-62
2022/12/24 09:57:56;;;;;;;13.00;9.48;;;;;;;23.31;36.58;94809.91;5053555;28;20045;-66
2022/12/24 10:00:25;;;;;;;11.80;9.40;;;;;;;23.35;36.84;94812.31;5031957;28;20037;-64
2022/12/24 10:02:51;;;;;;;10.88;9.35;;;;;;;23.36;37.03;94813.81;5014127;28;20136;-67
2022/12/24 10:05:17;;;;;;;12.27;9.73;;;;;;;23.35;36.53;94804.91;5025166;28;20040;-66
2022/12/24 10:08:04;;;;;;;11.57;8.95;;;;;;;22.71;36.63;94717.25;5025333;28;20138;-64
2022/12/24 10:10:52;;;;;;;12.60;10.05;;;;;;;23.38;36.94;94825.69;5040893;28;20048;-63
2022/12/24 10:13:26;;;;;;;12.55;9.70;;;;;;;23.44;36.52;94812.72;5029192;28;20246;-66
2022/12/24 10:16:38;;;;;;;11.27;9.82;;;;;;;23.39;36.92;94818.97;5040319;28;20056;-66
2022/12/24 10:19:37;;;;;;;12.93;9.48;;;;;;;23.42;36.83;94807.03;5026450;28;20060;-66
2022/12/24 10:22:19;;;;;;;11.87;9.53;;;;;;;23.40;36.35;94785.75;5038495;28;20179;-66
2022/12/24 10:24:53;;;;;;;11.68;9.70;;;;;;;23.37;36.52;94810.56;5015044;28;20041;-66
2022/12/24 10:27:20;;;;;;;12.60;9.75;;;;;;;23.56;36.41;94803.16;5042366;28;20047;-63
2022/12/24 10:29:51;;;;;;;14.07;10.10;;;;;;;22.89;36.54;94700.94;5008274;28;20048;-63
2022/12/24 10:32:25;;;;;;;12.43;9.35;;;;;;;23.55;36.30;94802.41;5009000;28;20036;-65
2022/12/24 10:35:03;;;;;;;12.30;10.07;;;;;;;23.36;36.33;94781.84;5023903;28;20347;-65
2022/12/24 10:37:28;;;;;;;12.75;9.93;;;;;;;23.56;36.41;94812.06;5025424;28;20036;-63
2022/12/24 10:39:54;;;;;;;12.63;9.93;;;;;;;23.55;36.68;94804.41;5024506;28;20045;-65
2022/12/24 10:42:20;;;;;;;11.90;9.75;;;;;;;23.37;36.42;94784.06;5008405;28;20049;-62
2022/12/24 10:44:49;;;;;;;11.43;9.52;;;;;;;23.32;36.94;94781.41;5008604;28;20460;-66
2022/12/24 10:47:15;;;;;;;13.43;10.25;;;;;;;23.35;36.58;94774.94;5024136;28;20040;-65
2022/12/24 10:49:46;;;;;;;12.73;10.00;;;;;;;23.45;36.44;94800.56;5007047;28;20414;-66
2022/12/24 10:52:16;;;;;;;13.10;10.38;;;;;;;23.47;36.30;94784.44;5005123;28;20042;-65
2022/12/24 10:55:05;;;;;;;14.02;10.98;;;;;;;23.38;36.65;94787.53;5024415;28;20078;-64
2022/12/24 10:57:30;;;;;;;13.90;10.38;;;;;;;23.32;37.01;94789.59;5023449;28;20059;-66
2022/12/24 10:59:56;;;;;;;14.45;10.70;;;;;;;23.30;37.31;94783.91;5008441;28;20520;-65
2022/12/24 11:02:24;;;;;;;12.55;10.45;;;;;;;23.29;37.33;94793.34;5041412;28;20441;-66
2022/12/24 11:04:49;;;;;;;13.02;10.75;;;;;;;23.22;37.40;94788.47;5033532;28;20049;-64
2022/12/24 11:07:19;;;;;;;13.23;10.32;;;;;;;23.09;37.07;94774.75;5007481;28;20107;-66
2022/12/24 11:09:53;;;;;;;;;;;;;;;23.28;37.05;94802.75;5045045;28;20066;-66
2022/12/24 11:12:24;;;;;;;12.77;10.80;;;;;;;23.31;36.90;94812.63;5052899;28;19947;-65
2022/12/24 11:14:58;;;;;;;15.57;11.23;;;;;;;22.75;37.31;94723.13;5039201;28;20052;-66
2022/12/24 11:17:24;;;;;;;13.05;9.77;;;;;;;23.32;37.34;94786.88;5043054;28;20462;-66
2022/12/24 11:19:49;;;;;;;15.63;11.30;;;;;;;23.23;37.08;94754.53;5028935;28;20041;-67
2022/12/24 11:22:28;;;;;;;13.43;10.18;;;;;;;23.37;37.20;94786.06;5022668;28;20513;-64
2022/12/24 11:25:05;;;;;;;12.50;10.65;;;;;;;23.40;36.87;94779.56;5015281;28;20052;-66
2022/12/24 11:27:32;;;;;;;13.75;10.98;;;;;;;23.40;37.24;94782.28;5013901;28;20049;-65
2022/12/24 11:30:18;;;;;;;13.18;10.70;;;;;;;23.31;37.54;94790.84;5038540;28;20428;-62
2022/12/24 11:32:46;;;;;;;18.88;11.45;;;;;;;23.43;36.88;94792.16;5040843;28;20083;-66